createdAt,value
2018-08-10T00:00:40.827Z,21.30
2018-08-10T00:03:10.185Z,21.20
2018-08-10T00:05:39.923Z,21.20
2018-08-10T00:08:08.991Z,21.20
2018-08-10T00:10:37.800Z,21.20
2018-08-10T00:13:06.693Z,21.30
2018-08-10T00:15:35.547Z,21.30
2018-08-10T00:18:04.420Z,21.30
2018-08-10T00:20:33.259Z,21.20
2018-08-10T00:23:02.130Z,21.20
2018-08-10T00:25:31.035Z,21.30
2018-08-10T00:27:59.904Z,21.10
2018-08-10T00:30:28.755Z,21.20
2018-08-10T00:32:57.560Z,21.20
2018-08-10T00:35:26.446Z,21.20
2018-08-10T00:37:55.312Z,21.10
2018-08-10T00:40:24.452Z,21.20
2018-08-10T00:42:53.315Z,21.10
2018-08-10T00:45:22.123Z,21.10
2018-08-10T00:47:51.004Z,21.00
2018-08-10T00:50:19.921Z,21.00
2018-08-10T00:52:49.015Z,21.10
2018-08-10T00:55:19.113Z,21.00
2018-08-10T00:57:48.652Z,20.90
2018-08-10T01:00:22.414Z,21.00
2018-08-10T01:02:52.121Z,20.80
2018-08-10T01:05:20.951Z,20.90
2018-08-10T01:07:49.833Z,20.80
2018-08-10T01:10:20.104Z,20.90
2018-08-10T01:12:49.030Z,20.80
2018-08-10T01:15:18.421Z,20.70
2018-08-10T01:17:47.528Z,20.80
2018-08-10T01:20:21.199Z,20.80
2018-08-10T01:22:55.271Z,20.90
2018-08-10T01:25:25.882Z,20.90
2018-08-10T01:28:02.033Z,20.70
2018-08-10T01:30:31.986Z,20.70
2018-08-10T01:33:01.163Z,20.80
2018-08-10T01:35:30.523Z,20.70
2018-08-10T01:38:00.494Z,20.70
2018-08-10T01:40:29.536Z,20.60
2018-08-10T01:42:58.441Z,20.60
2018-08-10T01:45:27.277Z,20.80
2018-08-10T01:47:56.108Z,20.70
2018-08-10T01:50:24.967Z,20.70
2018-08-10T01:52:53.812Z,20.60
2018-08-10T01:55:22.781Z,20.50
2018-08-10T01:57:51.673Z,20.60
2018-08-10T02:00:20.479Z,20.50
2018-08-10T02:02:49.320Z,20.60
2018-08-10T02:05:18.184Z,20.70
2018-08-10T02:07:47.027Z,20.60
2018-08-10T02:10:17.112Z,20.60
2018-08-10T02:12:52.064Z,20.50
2018-08-10T02:15:20.875Z,20.70
2018-08-10T02:17:49.948Z,20.40
2018-08-10T02:20:20.237Z,20.60
2018-08-10T02:22:49.062Z,20.50
2018-08-10T02:25:19.246Z,20.20
2018-08-10T02:27:49.107Z,20.30
2018-08-10T02:30:19.140Z,20.20
2018-08-10T02:32:48.805Z,20.50
2018-08-10T02:35:17.643Z,20.40
2018-08-10T02:37:46.484Z,20.20
2018-08-10T02:40:20.668Z,20.50
2018-08-10T02:42:50.207Z,20.60
2018-08-10T02:45:19.203Z,20.40
2018-08-10T02:47:48.733Z,20.60
2018-08-10T02:50:17.629Z,20.70
2018-08-10T02:52:46.641Z,20.60
2018-08-10T02:55:15.579Z,20.60
2018-08-10T02:57:44.492Z,20.50
2018-08-10T03:00:15.173Z,20.40
2018-08-10T03:02:44.516Z,20.50
2018-08-10T03:05:13.464Z,20.50
2018-08-10T03:07:42.487Z,20.70
2018-08-10T03:10:12.686Z,20.70
2018-08-10T03:12:41.584Z,20.60
2018-08-10T03:15:15.232Z,20.80
2018-08-10T03:17:44.661Z,20.70
2018-08-10T03:20:13.723Z,20.80
2018-08-10T03:22:42.886Z,20.90
2018-08-10T03:25:13.304Z,20.90
2018-08-10T03:27:42.155Z,21.00
2018-08-10T03:30:12.383Z,20.80
2018-08-10T03:32:41.245Z,20.90
2018-08-10T03:35:10.132Z,20.80
2018-08-10T03:37:39.298Z,20.90
2018-08-10T03:40:11.375Z,20.80
2018-08-10T03:42:40.236Z,21.00
2018-08-10T03:45:09.426Z,21.00
2018-08-10T03:47:38.304Z,21.20
2018-08-10T03:50:09.619Z,21.30
2018-08-10T03:52:38.472Z,21.20
2018-08-10T03:55:07.869Z,21.20
2018-08-10T03:57:36.767Z,21.10
2018-08-10T04:00:08.204Z,21.00
2018-08-10T04:02:37.208Z,21.30
2018-08-10T04:05:06.756Z,21.00
2018-08-10T04:07:35.641Z,21.30
2018-08-10T04:10:05.320Z,21.20
2018-08-10T04:12:34.110Z,21.10
2018-08-10T04:15:02.967Z,21.10
2018-08-10T04:17:31.865Z,21.30
2018-08-10T04:20:00.702Z,21.00
2018-08-10T04:22:29.534Z,20.70
2018-08-10T04:24:58.402Z,20.90
2018-08-10T04:27:27.245Z,21.10
2018-08-10T04:29:56.131Z,21.20
2018-08-10T04:32:25.329Z,21.20
2018-08-10T04:34:54.175Z,21.20
2018-08-10T04:37:23.011Z,21.20
2018-08-10T04:39:51.856Z,21.20
2018-08-10T04:42:20.680Z,21.40
2018-08-10T04:44:49.475Z,21.40
2018-08-10T04:47:18.323Z,21.50
2018-08-10T04:49:47.190Z,21.20
2018-08-10T04:52:16.003Z,21.40
2018-08-10T04:54:44.884Z,21.40
2018-08-10T04:57:13.706Z,21.40
2018-08-10T04:59:42.565Z,21.60
2018-08-10T05:02:11.488Z,21.70
2018-08-10T05:04:40.372Z,21.60
2018-08-10T05:07:09.228Z,21.70
2018-08-10T05:09:38.072Z,21.60
2018-08-10T05:12:06.907Z,21.50
2018-08-10T05:14:35.764Z,21.60
2018-08-10T05:17:04.575Z,21.70
2018-08-10T05:19:33.474Z,21.90
2018-08-10T05:22:02.317Z,22.00
2018-08-10T05:24:31.155Z,21.90
2018-08-10T05:27:00.040Z,22.00
2018-08-10T05:29:28.884Z,21.50
2018-08-10T05:31:57.761Z,21.40
2018-08-10T05:34:26.620Z,21.50
2018-08-10T05:36:55.443Z,21.60
2018-08-10T05:39:24.275Z,21.40
2018-08-10T05:41:53.116Z,21.50
2018-08-10T05:44:21.997Z,21.80
2018-08-10T05:46:51.152Z,21.60
2018-08-10T05:49:19.999Z,21.70
2018-08-10T05:51:48.904Z,21.70
2018-08-10T05:54:17.758Z,21.50
2018-08-10T05:56:46.621Z,21.50
2018-08-10T05:59:15.415Z,21.60
2018-08-10T06:01:44.244Z,21.60
2018-08-10T06:04:13.078Z,21.60
2018-08-10T06:06:41.981Z,21.60
2018-08-10T06:09:13.879Z,21.60
2018-08-10T06:11:43.699Z,21.60
2018-08-10T06:14:13.247Z,21.60
2018-08-10T06:16:42.137Z,21.50
2018-08-10T06:19:11.036Z,21.60
2018-08-10T06:21:40.019Z,21.70
2018-08-10T06:24:08.719Z,21.20
2018-08-10T06:26:37.562Z,21.40
2018-08-10T06:29:06.415Z,21.50
2018-08-10T06:31:35.298Z,21.40
2018-08-10T06:34:04.118Z,21.10
2018-08-10T06:36:32.935Z,21.10
2018-08-10T06:39:01.797Z,20.80
2018-08-10T06:41:30.591Z,20.80
2018-08-10T06:43:59.520Z,21.00
2018-08-10T06:46:28.338Z,21.00
2018-08-10T06:48:57.256Z,21.00
2018-08-10T06:51:26.120Z,20.90
2018-08-10T06:53:54.993Z,20.90
2018-08-10T06:56:23.876Z,20.90
2018-08-10T06:58:52.791Z,20.80
2018-08-10T07:01:21.664Z,20.90
2018-08-10T07:03:50.453Z,21.00
2018-08-10T07:06:19.251Z,21.30
2018-08-10T07:08:48.150Z,21.30
2018-08-10T07:11:17.084Z,21.20
2018-08-10T07:13:45.914Z,21.60
2018-08-10T07:16:14.764Z,21.40
2018-08-10T07:18:43.693Z,22.00
2018-08-10T07:21:12.555Z,21.50
2018-08-10T07:23:41.425Z,21.50
2018-08-10T07:26:10.275Z,21.40
2018-08-10T07:28:39.064Z,21.40
2018-08-10T07:31:07.916Z,21.80
2018-08-10T07:33:36.845Z,21.80
2018-08-10T07:36:05.782Z,21.60
2018-08-10T07:38:34.618Z,21.70
2018-08-10T07:41:03.481Z,21.90
2018-08-10T07:43:32.340Z,21.60
2018-08-10T07:46:01.197Z,21.50
2018-08-10T07:48:30.032Z,21.40
2018-08-10T07:50:58.872Z,21.40
2018-08-10T07:53:27.708Z,21.60
2018-08-10T07:55:56.638Z,21.30
2018-08-10T07:58:25.446Z,21.60
2018-08-10T08:00:54.304Z,21.40
2018-08-10T08:03:23.202Z,21.70
2018-08-10T08:05:52.028Z,21.30
2018-08-10T08:08:20.937Z,21.30
2018-08-10T08:10:49.793Z,21.50
2018-08-10T08:13:18.590Z,21.30
2018-08-10T08:15:47.462Z,21.10
2018-08-10T08:18:16.286Z,21.30
2018-08-10T08:21:10.181Z,21.40
2018-08-10T08:23:39.042Z,21.40
2018-08-10T08:26:07.932Z,21.80
2018-08-10T08:28:37.059Z,22.00
2018-08-10T08:31:06.315Z,21.80
2018-08-10T08:33:51.296Z,22.00
2018-08-10T08:36:20.177Z,21.90
2018-08-10T08:39:15.364Z,21.90
2018-08-10T08:41:44.238Z,22.00
2018-08-10T08:44:44.092Z,21.80
2018-08-10T08:47:12.931Z,22.10
2018-08-10T08:49:41.776Z,22.20
2018-08-10T08:52:10.643Z,22.30
2018-08-10T08:55:47.876Z,22.70
2018-08-10T08:58:16.732Z,22.40
2018-08-10T09:00:45.592Z,22.40
2018-08-10T09:03:32.639Z,22.40
2018-08-10T09:06:01.791Z,22.30
2018-08-10T09:08:30.627Z,22.10
2018-08-10T09:11:00.654Z,22.00
2018-08-10T09:13:44.437Z,22.50
2018-08-10T09:16:13.251Z,22.60
2018-08-10T09:18:42.062Z,22.80
2018-08-10T09:21:10.943Z,22.30
2018-08-10T09:23:39.833Z,22.60
2018-08-10T09:26:08.630Z,23.10
2018-08-10T09:28:37.501Z,23.00
2018-08-10T09:31:06.516Z,23.30
2018-08-10T09:33:35.577Z,22.80
2018-08-10T09:36:04.439Z,22.70
2018-08-10T09:38:33.269Z,22.60
2018-08-10T09:41:02.103Z,22.70
2018-08-10T09:43:30.939Z,22.90
2018-08-10T09:45:59.744Z,23.30
2018-08-10T09:48:28.596Z,23.30
2018-08-10T09:50:57.435Z,23.50
2018-08-10T09:53:26.278Z,24.30
2018-08-10T09:55:55.108Z,24.60
2018-08-10T09:58:23.923Z,24.00
2018-08-10T10:00:59.791Z,24.40
2018-08-10T10:03:28.631Z,24.30
2018-08-10T10:05:58.973Z,24.10
2018-08-10T10:08:27.987Z,24.30
2018-08-10T10:10:56.828Z,24.90
2018-08-10T10:13:25.663Z,24.20
2018-08-10T10:15:54.484Z,24.20
2018-08-10T10:18:23.286Z,23.90
2018-08-10T10:20:52.139Z,24.10
2018-08-10T10:23:21.006Z,24.10
2018-08-10T10:25:49.825Z,24.50
2018-08-10T10:28:18.732Z,24.10
2018-08-10T10:30:47.622Z,24.30
2018-08-10T10:33:16.522Z,24.10
2018-08-10T10:35:45.464Z,24.70
2018-08-10T10:38:14.385Z,24.20
2018-08-10T10:40:43.309Z,23.80
2018-08-10T10:43:12.140Z,23.70
2018-08-10T10:45:40.999Z,23.80
2018-08-10T10:48:09.790Z,24.10
2018-08-10T10:50:38.616Z,24.40
2018-08-10T10:53:07.555Z,24.40
2018-08-10T10:55:36.532Z,25.10
2018-08-10T10:58:05.254Z,25.50
2018-08-10T11:00:34.140Z,25.10
2018-08-10T11:03:02.992Z,24.80
2018-08-10T11:05:31.819Z,25.40
2018-08-10T11:08:00.640Z,25.50
2018-08-10T11:10:29.565Z,25.90
2018-08-10T11:12:58.453Z,25.00
2018-08-10T11:15:27.324Z,25.20
2018-08-10T11:17:56.214Z,26.00
2018-08-10T11:20:25.003Z,25.70
2018-08-10T11:22:53.819Z,26.30
2018-08-10T11:25:22.742Z,26.70
2018-08-10T11:27:51.573Z,27.40
2018-08-10T11:30:20.591Z,28.60
2018-08-10T11:32:49.357Z,29.10
2018-08-10T11:35:18.220Z,29.40
2018-08-10T11:37:47.082Z,28.50
2018-08-10T11:40:16.223Z,27.10
2018-08-10T11:42:45.053Z,27.20
2018-08-10T11:45:15.301Z,27.00
2018-08-10T11:47:44.106Z,26.60
2018-08-10T11:50:12.989Z,25.80
2018-08-10T11:52:41.791Z,27.00
2018-08-10T11:55:12.703Z,27.70
2018-08-10T11:57:41.740Z,27.20
2018-08-10T12:00:12.520Z,27.30
2018-08-10T12:02:41.442Z,26.70
2018-08-10T12:05:12.024Z,29.00
2018-08-10T12:07:41.103Z,28.10
2018-08-10T12:10:10.117Z,27.70
2018-08-10T12:12:39.219Z,28.30
2018-08-10T12:15:10.943Z,27.60
2018-08-10T12:17:39.800Z,29.00
2018-08-10T12:20:09.583Z,30.20
2018-08-10T12:22:39.149Z,28.60
2018-08-10T12:25:08.042Z,30.40
2018-08-10T12:27:37.013Z,32.90
2018-08-10T12:30:07.865Z,33.30
2018-08-10T12:32:36.794Z,36.30
2018-08-10T12:35:05.644Z,35.80
2018-08-10T12:37:34.467Z,36.60
2018-08-10T12:40:03.321Z,39.10
2018-08-10T12:42:32.120Z,36.00
2018-08-10T12:45:00.979Z,38.50
2018-08-10T12:47:29.938Z,41.00
2018-08-10T12:49:58.795Z,43.20
2018-08-10T12:52:27.623Z,43.30
2018-08-10T12:54:56.499Z,42.40
2018-08-10T12:57:25.303Z,44.00
2018-08-10T12:59:54.090Z,43.50
2018-08-10T13:02:22.969Z,43.70
2018-08-10T13:04:51.836Z,42.30
2018-08-10T13:07:20.667Z,43.00
2018-08-10T13:09:49.584Z,42.70
2018-08-10T13:12:18.432Z,39.90
2018-08-10T13:14:47.256Z,39.30
2018-08-10T13:17:16.599Z,36.80
2018-08-10T13:19:45.504Z,38.30
2018-08-10T13:22:14.295Z,41.20
2018-08-10T13:24:43.297Z,41.20
2018-08-10T13:27:12.119Z,45.10
2018-08-10T13:29:40.977Z,43.80
2018-08-10T13:32:09.883Z,44.10
2018-08-10T13:34:38.732Z,47.80
2018-08-10T13:37:07.611Z,50.60
2018-08-10T13:39:36.520Z,49.90
2018-08-10T13:42:05.395Z,49.70
2018-08-10T13:44:34.265Z,49.10
2018-08-10T13:47:03.123Z,49.20
2018-08-10T13:49:32.009Z,48.90
2018-08-10T13:52:00.917Z,52.50
2018-08-10T13:54:29.796Z,49.00
2018-08-10T13:56:58.760Z,39.90
2018-08-10T13:59:27.594Z,35.90
2018-08-10T14:01:56.573Z,36.40
2018-08-10T14:04:25.441Z,41.60
2018-08-10T14:06:54.290Z,44.70
2018-08-10T14:09:23.160Z,42.70
2018-08-10T14:11:52.028Z,39.40
2018-08-10T14:14:20.888Z,36.20
2018-08-10T14:16:49.745Z,39.00
2018-08-10T14:19:18.731Z,41.30
2018-08-10T14:21:47.562Z,40.10
2018-08-10T14:24:16.387Z,42.30
2018-08-10T14:26:45.901Z,44.10
2018-08-10T14:29:14.724Z,42.50
2018-08-10T14:31:43.584Z,44.10
2018-08-10T14:34:12.471Z,46.00
2018-08-10T14:36:41.311Z,49.00
2018-08-10T14:39:11.674Z,47.40
2018-08-10T14:41:40.645Z,47.70
2018-08-10T14:44:09.446Z,47.40
2018-08-10T14:46:38.283Z,40.30
2018-08-10T14:49:08.099Z,35.40
2018-08-10T14:51:36.939Z,39.80
2018-08-10T14:54:06.080Z,40.20
2018-08-10T14:56:34.913Z,45.20
2018-08-10T14:59:03.695Z,47.80
2018-08-10T15:01:32.523Z,46.60
2018-08-10T15:04:01.422Z,46.30
2018-08-10T15:06:30.223Z,47.00
2018-08-10T15:08:59.015Z,47.50
2018-08-10T15:11:27.810Z,46.40
2018-08-10T15:13:56.619Z,48.70
2018-08-10T15:16:25.431Z,49.10
2018-08-10T15:18:54.297Z,48.10
2018-08-10T15:21:23.199Z,43.10
2018-08-10T15:23:52.094Z,38.20
2018-08-10T15:26:20.927Z,36.30
2018-08-10T15:28:49.780Z,40.40
2018-08-10T15:31:18.633Z,44.20
2018-08-10T15:33:47.763Z,42.40
2018-08-10T15:36:16.557Z,41.40
2018-08-10T15:38:45.425Z,37.00
2018-08-10T15:41:14.230Z,35.50
2018-08-10T15:43:43.127Z,33.50
2018-08-10T15:46:11.953Z,37.30
2018-08-10T15:48:40.821Z,39.60
2018-08-10T15:51:09.672Z,43.60
2018-08-10T15:53:38.454Z,42.20
2018-08-10T15:56:07.349Z,40.10
2018-08-10T15:58:36.176Z,40.40
2018-08-10T16:01:04.979Z,42.40
2018-08-10T16:03:33.831Z,43.30
2018-08-10T16:06:09.411Z,43.10
2018-08-10T16:08:38.395Z,41.40
2018-08-10T16:11:07.463Z,41.40
2018-08-10T16:13:36.257Z,44.00
2018-08-10T16:16:05.241Z,43.00
2018-08-10T16:18:34.060Z,42.00
2018-08-10T16:21:03.043Z,42.50
2018-08-10T16:23:31.883Z,43.30
2018-08-10T16:26:00.740Z,42.50
2018-08-10T16:28:29.598Z,43.20
2018-08-10T16:30:58.403Z,43.00
2018-08-10T16:33:27.245Z,43.80
2018-08-10T16:35:56.118Z,42.00
2018-08-10T16:38:24.941Z,41.90
2018-08-10T16:40:53.741Z,43.00
2018-08-10T16:43:22.583Z,41.00
2018-08-10T16:45:51.481Z,42.10
2018-08-10T16:48:20.315Z,41.90
2018-08-10T16:50:49.219Z,39.20
2018-08-10T16:53:17.960Z,36.30
2018-08-10T16:55:46.840Z,38.20
2018-08-10T16:58:15.697Z,39.20
2018-08-10T17:00:44.491Z,39.80
2018-08-10T17:03:13.387Z,38.50
2018-08-10T17:05:42.239Z,36.00
2018-08-10T17:08:11.269Z,36.20
2018-08-10T17:11:15.740Z,33.60
2018-08-10T17:13:44.575Z,33.50
2018-08-10T17:16:13.527Z,32.00
2018-08-10T17:18:42.418Z,31.70
2018-08-10T17:21:11.408Z,31.20
2018-08-10T17:23:40.251Z,30.50
2018-08-10T17:26:09.123Z,29.60
2018-08-10T17:28:38.006Z,28.70
2018-08-10T17:31:07.061Z,29.60
2018-08-10T17:33:36.034Z,31.00
2018-08-10T17:36:05.232Z,32.90
2018-08-10T17:38:34.157Z,33.00
2018-08-10T17:41:03.045Z,34.10
2018-08-10T17:43:31.992Z,34.40
2018-08-10T17:46:00.896Z,33.80
2018-08-10T17:48:29.766Z,33.80
2018-08-10T17:50:58.634Z,33.40
2018-08-10T17:53:27.506Z,31.80
2018-08-10T17:55:56.431Z,31.20
2018-08-10T17:58:25.271Z,30.00
2018-08-10T18:00:54.136Z,29.10
2018-08-10T18:03:22.983Z,28.40
2018-08-10T18:05:51.819Z,27.90
2018-08-10T18:08:20.685Z,26.60
2018-08-10T18:10:49.511Z,26.60
2018-08-10T18:13:18.375Z,26.50
2018-08-10T18:15:47.228Z,25.10
2018-08-10T18:18:16.085Z,25.40
2018-08-10T18:20:44.951Z,25.00
2018-08-10T18:23:13.853Z,24.90
2018-08-10T18:25:42.688Z,24.40
2018-08-10T18:28:11.530Z,24.20
2018-08-10T18:30:40.512Z,23.80
2018-08-10T18:33:09.340Z,23.80
2018-08-10T18:35:38.196Z,23.20
2018-08-10T18:38:07.002Z,23.30
2018-08-10T18:40:35.872Z,23.20
2018-08-10T18:43:05.086Z,23.10
2018-08-10T18:45:33.957Z,23.00
2018-08-10T18:48:02.791Z,22.90
2018-08-10T18:50:31.648Z,22.60
2018-08-10T18:53:00.447Z,22.60
2018-08-10T18:55:29.304Z,22.60
2018-08-10T18:57:58.209Z,22.20
2018-08-10T19:00:27.608Z,21.20
2018-08-10T19:02:56.508Z,21.70
2018-08-10T19:05:25.356Z,21.90
2018-08-10T19:07:54.216Z,22.10
2018-08-10T19:10:25.371Z,22.30
2018-08-10T19:12:54.236Z,21.80
2018-08-10T19:15:23.064Z,21.80
2018-08-10T19:17:51.944Z,20.80
2018-08-10T19:20:20.820Z,21.00
2018-08-10T19:22:49.669Z,21.30
2018-08-10T19:25:18.561Z,21.40
2018-08-10T19:27:47.439Z,21.80
2018-08-10T19:30:18.741Z,21.40
2018-08-10T19:32:48.325Z,20.90
2018-08-10T19:35:17.843Z,20.20
2018-08-10T19:37:46.741Z,20.20
2018-08-10T19:40:16.847Z,20.70
2018-08-10T19:42:45.697Z,21.10
2018-08-10T19:45:15.529Z,21.30
2018-08-10T19:47:44.780Z,21.30
2018-08-10T19:50:15.220Z,21.30
2018-08-10T19:52:44.104Z,21.30
2018-08-10T19:55:14.620Z,21.30
2018-08-10T19:57:43.537Z,21.30
2018-08-10T20:00:15.333Z,21.10
2018-08-10T20:02:46.648Z,21.00
2018-08-10T20:05:15.701Z,21.00
2018-08-10T20:07:44.762Z,20.90
2018-08-10T20:10:14.437Z,21.00
2018-08-10T20:12:43.363Z,20.80
2018-08-10T20:15:15.348Z,20.80
2018-08-10T20:17:44.251Z,20.70
2018-08-10T20:20:16.460Z,20.60
2018-08-10T20:22:45.673Z,20.60
2018-08-10T20:25:15.211Z,20.50
2018-08-10T20:27:44.060Z,20.60
2018-08-10T20:30:16.152Z,20.50
2018-08-10T20:32:45.458Z,20.60
2018-08-10T20:35:17.415Z,20.50
2018-08-10T20:37:46.276Z,20.40
2018-08-10T20:40:17.413Z,20.40
2018-08-10T20:42:46.575Z,20.30
2018-08-10T20:45:16.476Z,20.30
2018-08-10T20:47:45.364Z,20.30
2018-08-10T20:50:16.031Z,20.20
2018-08-10T20:52:45.422Z,20.20
2018-08-10T20:55:14.222Z,20.20
2018-08-10T20:57:43.786Z,20.10
2018-08-10T21:00:12.935Z,20.00
2018-08-10T21:02:43.249Z,20.00
2018-08-10T21:05:12.445Z,19.90
2018-08-10T21:07:41.315Z,19.80
2018-08-10T21:10:12.413Z,19.80
2018-08-10T21:12:42.257Z,19.80
2018-08-10T21:15:12.448Z,19.80
2018-08-10T21:17:42.395Z,19.70
2018-08-10T21:20:12.891Z,19.60
2018-08-10T21:22:41.737Z,19.60
2018-08-10T21:25:11.283Z,19.70
2018-08-10T21:27:40.669Z,19.70
2018-08-10T21:30:13.387Z,19.60
2018-08-10T21:32:42.229Z,19.60
2018-08-10T21:35:11.311Z,19.70
2018-08-10T21:37:40.189Z,19.50
2018-08-10T21:40:09.942Z,19.20
2018-08-10T21:42:39.064Z,19.40
2018-08-10T21:45:07.948Z,19.50
2018-08-10T21:47:37.339Z,19.50
2018-08-10T21:50:09.163Z,19.70
2018-08-10T21:52:38.027Z,19.70
2018-08-10T21:55:06.925Z,19.80
2018-08-10T21:57:35.736Z,19.90
2018-08-10T22:00:10.000Z,19.90
2018-08-10T22:02:38.807Z,19.90
2018-08-10T22:05:07.663Z,19.80
2018-08-10T22:07:36.537Z,19.80
2018-08-10T22:10:05.887Z,19.90
2018-08-10T22:12:38.912Z,19.90
2018-08-10T22:15:13.077Z,19.90
2018-08-10T22:17:47.308Z,19.60
2018-08-10T22:20:16.197Z,19.70
2018-08-10T22:22:45.049Z,19.90
2018-08-10T22:25:13.906Z,19.90
2018-08-10T22:27:42.708Z,19.90
2018-08-10T22:30:11.580Z,19.60
2018-08-10T22:32:40.568Z,19.80
2018-08-10T22:35:09.505Z,19.50
2018-08-10T22:37:38.392Z,19.70
2018-08-10T22:40:07.533Z,19.80
2018-08-10T22:42:36.582Z,19.40
2018-08-10T22:45:06.044Z,19.70
2018-08-10T22:47:34.927Z,19.90
2018-08-10T22:50:03.808Z,19.40
2018-08-10T22:52:32.665Z,19.50
2018-08-10T22:55:01.562Z,19.70
2018-08-10T22:57:30.399Z,19.70
2018-08-10T22:59:59.544Z,19.60
2018-08-10T23:02:28.437Z,19.70
2018-08-10T23:04:57.249Z,19.70
2018-08-10T23:07:26.096Z,19.90
2018-08-10T23:09:54.953Z,20.00
2018-08-10T23:12:23.759Z,20.00
2018-08-10T23:14:52.562Z,20.10
2018-08-10T23:17:21.427Z,20.00
2018-08-10T23:19:50.292Z,19.70
2018-08-10T23:22:19.423Z,19.80
2018-08-10T23:24:48.287Z,20.10
2018-08-10T23:27:17.112Z,20.00
2018-08-10T23:29:45.916Z,19.90
2018-08-10T23:32:14.796Z,19.60
2018-08-10T23:34:43.664Z,19.80
2018-08-10T23:37:12.499Z,19.80
2018-08-10T23:39:41.412Z,19.80
2018-08-10T23:42:10.253Z,19.50
2018-08-10T23:44:39.114Z,19.90
2018-08-10T23:47:08.019Z,19.80
2018-08-10T23:49:36.819Z,20.00
2018-08-10T23:52:05.858Z,20.20
2018-08-10T23:54:34.728Z,20.00
2018-08-10T23:57:03.639Z,20.00
2018-08-10T23:59:32.487Z,20.00
